createdAt,value
2018-03-18T00:00:05.785Z,968.20
2018-03-18T00:01:05.040Z,968.23
2018-03-18T00:02:05.092Z,968.26
2018-03-18T00:03:05.271Z,968.31
2018-03-18T00:04:05.521Z,968.40
2018-03-18T00:05:05.853Z,968.23
2018-03-18T00:06:05.528Z,968.40
2018-03-18T00:07:10.773Z,968.34
2018-03-18T00:08:05.746Z,968.37
2018-03-18T00:09:05.073Z,968.34
2018-03-18T00:10:05.657Z,968.37
2018-03-18T00:11:05.572Z,968.40
2018-03-18T00:12:05.697Z,968.31
2018-03-18T00:13:05.882Z,968.37
2018-03-18T00:14:05.464Z,968.42
2018-03-18T00:15:05.389Z,968.26
2018-03-18T00:16:05.379Z,968.39
2018-03-18T00:17:05.113Z,968.42
2018-03-18T00:18:05.470Z,968.31
2018-03-18T00:19:05.187Z,968.34
2018-03-18T00:20:06.148Z,968.40
2018-03-18T00:21:05.574Z,968.37
2018-03-18T00:22:05.126Z,968.37
2018-03-18T00:23:05.483Z,968.37
2018-03-18T00:24:06.154Z,968.40
2018-03-18T00:25:05.190Z,968.45
2018-03-18T00:26:05.890Z,968.72
2018-03-18T00:27:05.864Z,968.26
2018-03-18T00:28:05.164Z,968.51
2018-03-18T00:29:10.122Z,968.45
2018-03-18T00:30:05.294Z,968.45
2018-03-18T00:31:05.883Z,968.59
2018-03-18T00:32:10.577Z,968.37
2018-03-18T00:33:05.839Z,968.45
2018-03-18T00:34:05.909Z,968.51
2018-03-18T00:35:05.872Z,968.42
2018-03-18T00:36:05.528Z,968.56
2018-03-18T00:37:05.581Z,968.34
2018-03-18T00:38:05.709Z,968.48
2018-03-18T00:39:05.267Z,968.45
2018-03-18T00:40:05.414Z,968.23
2018-03-18T00:41:05.481Z,968.37
2018-03-18T00:42:05.355Z,968.40
2018-03-18T00:43:05.307Z,968.29
2018-03-18T00:44:04.957Z,968.34
2018-03-18T00:45:05.496Z,968.29
2018-03-18T00:46:05.078Z,968.39
2018-03-18T00:47:05.907Z,968.20
2018-03-18T00:48:06.068Z,968.48
2018-03-18T00:49:05.939Z,968.34
2018-03-18T00:50:05.375Z,968.37
2018-03-18T00:51:05.552Z,968.39
2018-03-18T00:52:05.788Z,968.31
2018-03-18T00:53:05.750Z,968.40
2018-03-18T00:54:05.685Z,968.50
2018-03-18T00:55:05.708Z,968.34
2018-03-18T00:56:05.168Z,968.26
2018-03-18T00:57:05.380Z,968.29
2018-03-18T00:58:05.006Z,968.45
2018-03-18T00:59:05.734Z,968.54
2018-03-18T01:00:05.946Z,968.29
2018-03-18T01:01:05.333Z,968.54
2018-03-18T01:02:05.084Z,968.45
2018-03-18T01:03:05.421Z,968.45
2018-03-18T01:04:05.395Z,968.45
2018-03-18T01:05:05.671Z,968.48
2018-03-18T01:06:05.416Z,968.54
2018-03-18T01:07:05.883Z,968.48
2018-03-18T01:08:05.179Z,968.40
2018-03-18T01:09:06.038Z,968.29
2018-03-18T01:10:10.319Z,968.23
2018-03-18T01:11:05.576Z,968.32
2018-03-18T01:12:05.807Z,968.29
2018-03-18T01:13:05.797Z,968.40
2018-03-18T01:14:05.273Z,968.45
2018-03-18T01:15:05.131Z,968.18
2018-03-18T01:16:05.339Z,968.37
2018-03-18T01:17:05.379Z,968.51
2018-03-18T01:18:04.960Z,968.26
2018-03-18T01:19:05.833Z,968.40
2018-03-18T01:20:10.743Z,968.45
2018-03-18T01:21:05.672Z,968.40
2018-03-18T01:22:05.238Z,968.37
2018-03-18T01:23:05.412Z,968.42
2018-03-18T01:24:05.240Z,968.29
2018-03-18T01:25:06.708Z,968.29
2018-03-18T01:26:05.922Z,968.54
2018-03-18T01:27:04.975Z,968.32
2018-03-18T01:28:05.829Z,968.34
2018-03-18T01:29:05.975Z,968.40
2018-03-18T01:30:05.384Z,968.45
2018-03-18T01:31:05.483Z,968.29
2018-03-18T01:32:05.308Z,968.23
2018-03-18T01:33:05.447Z,968.34
2018-03-18T01:34:05.319Z,968.34
2018-03-18T01:35:05.195Z,968.23
2018-03-18T01:36:05.603Z,968.34
2018-03-18T01:37:05.390Z,968.01
2018-03-18T01:38:05.615Z,968.29
2018-03-18T01:39:05.786Z,968.29
2018-03-18T01:40:07.256Z,968.12
2018-03-18T01:41:05.668Z,968.18
2018-03-18T01:42:05.453Z,968.15
2018-03-18T01:43:05.477Z,968.21
2018-03-18T01:44:05.697Z,968.21
2018-03-18T01:45:05.865Z,968.26
2018-03-18T01:46:05.721Z,968.34
2018-03-18T01:47:05.526Z,968.21
2018-03-18T01:48:06.037Z,968.29
2018-03-18T01:49:05.477Z,968.21
2018-03-18T01:50:06.036Z,968.40
2018-03-18T01:51:05.190Z,968.29
2018-03-18T01:52:05.841Z,967.99
2018-03-18T01:53:06.630Z,968.15
2018-03-18T01:54:05.943Z,968.10
2018-03-18T01:55:05.756Z,968.04
2018-03-18T01:56:05.704Z,968.02
2018-03-18T01:57:05.632Z,967.96
2018-03-18T01:58:05.566Z,967.94
2018-03-18T01:59:05.863Z,968.02
2018-03-18T02:00:05.817Z,968.15
2018-03-18T02:01:05.424Z,967.99
2018-03-18T02:02:06.354Z,967.99
2018-03-18T02:03:05.396Z,968.07
2018-03-18T02:04:04.929Z,968.21
2018-03-18T02:05:06.142Z,968.10
2018-03-18T02:06:05.069Z,968.15
2018-03-18T02:07:05.705Z,968.05
2018-03-18T02:08:10.036Z,968.02
2018-03-18T02:09:05.197Z,968.05
2018-03-18T02:10:05.109Z,968.08
2018-03-18T02:11:08.889Z,968.13
2018-03-18T02:12:05.900Z,968.13
2018-03-18T02:13:05.327Z,968.02
2018-03-18T02:14:05.243Z,967.91
2018-03-18T02:15:05.410Z,968.05
2018-03-18T02:16:06.316Z,968.08
2018-03-18T02:17:10.235Z,968.24
2018-03-18T02:18:05.389Z,968.08
2018-03-18T02:19:05.766Z,968.16
2018-03-18T02:20:05.935Z,968.13
2018-03-18T02:21:05.077Z,968.30
2018-03-18T02:22:06.085Z,968.05
2018-03-18T02:23:05.384Z,968.10
2018-03-18T02:24:05.375Z,968.16
2018-03-18T02:25:05.263Z,968.30
2018-03-18T02:26:05.829Z,968.05
2018-03-18T02:27:05.640Z,968.00
2018-03-18T02:28:05.394Z,968.02
2018-03-18T02:29:05.615Z,968.00
2018-03-18T02:30:05.375Z,968.02
2018-03-18T02:31:05.419Z,968.27
2018-03-18T02:32:05.015Z,968.22
2018-03-18T02:33:05.744Z,968.05
2018-03-18T02:34:05.608Z,968.00
2018-03-18T02:35:05.552Z,967.97
2018-03-18T02:36:05.358Z,968.14
2018-03-18T02:37:05.826Z,968.14
2018-03-18T02:38:05.862Z,968.00
2018-03-18T02:39:05.858Z,968.11
2018-03-18T02:40:05.735Z,968.03
2018-03-18T02:41:06.071Z,968.06
2018-03-18T02:42:05.442Z,968.03
2018-03-18T02:43:05.410Z,968.11
2018-03-18T02:44:05.793Z,968.08
2018-03-18T02:45:05.659Z,968.03
2018-03-18T02:46:05.761Z,968.03
2018-03-18T02:47:05.635Z,968.25
2018-03-18T02:48:05.803Z,967.95
2018-03-18T02:49:05.555Z,968.00
2018-03-18T02:50:05.797Z,968.19
2018-03-18T02:51:05.487Z,968.17
2018-03-18T02:52:05.545Z,968.06
2018-03-18T02:53:11.714Z,967.95
2018-03-18T02:54:05.954Z,968.06
2018-03-18T02:55:05.675Z,968.22
2018-03-18T02:56:05.014Z,968.14
2018-03-18T02:57:05.532Z,968.17
2018-03-18T02:58:05.478Z,968.09
2018-03-18T02:59:05.721Z,968.22
2018-03-18T03:00:05.819Z,968.03
2018-03-18T03:01:05.352Z,968.11
2018-03-18T03:02:05.127Z,968.20
2018-03-18T03:03:05.889Z,968.17
2018-03-18T03:04:05.778Z,968.09
2018-03-18T03:05:05.506Z,968.11
2018-03-18T03:06:05.247Z,968.09
2018-03-18T03:07:05.831Z,968.17
2018-03-18T03:08:05.977Z,967.98
2018-03-18T03:09:05.549Z,968.06
2018-03-18T03:10:05.985Z,968.15
2018-03-18T03:11:05.502Z,967.93
2018-03-18T03:12:05.602Z,968.20
2018-03-18T03:13:05.783Z,968.12
2018-03-18T03:14:05.741Z,968.23
2018-03-18T03:15:05.545Z,968.01
2018-03-18T03:16:05.542Z,968.23
2018-03-18T03:17:05.495Z,968.20
2018-03-18T03:18:05.615Z,968.29
2018-03-18T03:19:05.574Z,968.12
2018-03-18T03:20:10.441Z,968.26
2018-03-18T03:21:05.078Z,968.04
2018-03-18T03:22:05.560Z,968.21
2018-03-18T03:23:05.266Z,968.23
2018-03-18T03:24:05.966Z,968.26
2018-03-18T03:25:05.847Z,968.12
2018-03-18T03:26:05.784Z,968.23
2018-03-18T03:27:05.663Z,968.26
2018-03-18T03:28:05.476Z,968.07
2018-03-18T03:29:05.354Z,968.18
2018-03-18T03:30:06.398Z,968.10
2018-03-18T03:31:05.920Z,968.07
2018-03-18T03:32:05.569Z,968.26
2018-03-18T03:33:05.217Z,968.04
2018-03-18T03:34:05.958Z,968.10
2018-03-18T03:35:06.109Z,968.23
2018-03-18T03:36:06.014Z,968.04
2018-03-18T03:37:05.294Z,968.23
2018-03-18T03:38:05.312Z,968.24
2018-03-18T03:39:04.977Z,968.29
2018-03-18T03:40:05.186Z,968.18
2018-03-18T03:41:05.196Z,968.15
2018-03-18T03:42:05.178Z,968.07
2018-03-18T03:43:05.263Z,968.43
2018-03-18T03:44:05.916Z,968.13
2018-03-18T03:45:05.356Z,968.10
2018-03-18T03:46:05.043Z,968.10
2018-03-18T03:47:05.777Z,968.32
2018-03-18T03:48:06.108Z,967.99
2018-03-18T03:49:05.107Z,968.18
2018-03-18T03:50:05.697Z,968.51
2018-03-18T03:51:05.233Z,968.29
2018-03-18T03:52:05.214Z,968.21
2018-03-18T03:53:05.151Z,968.16
2018-03-18T03:54:10.850Z,968.16
2018-03-18T03:55:06.163Z,968.30
2018-03-18T03:56:05.810Z,968.35
2018-03-18T03:57:05.850Z,968.27
2018-03-18T03:58:05.145Z,968.19
2018-03-18T03:59:05.152Z,968.43
2018-03-18T04:00:05.431Z,968.30
2018-03-18T04:01:05.294Z,968.35
2018-03-18T04:02:05.308Z,968.30
2018-03-18T04:03:05.366Z,968.08
2018-03-18T04:04:06.076Z,968.25
2018-03-18T04:05:05.189Z,968.33
2018-03-18T04:06:05.259Z,968.30
2018-03-18T04:07:05.072Z,968.38
2018-03-18T04:08:06.752Z,968.55
2018-03-18T04:09:05.200Z,968.30
2018-03-18T04:10:05.044Z,968.25
2018-03-18T04:11:05.697Z,968.27
2018-03-18T04:12:16.633Z,968.33
2018-03-18T04:13:05.654Z,968.28
2018-03-18T04:14:05.618Z,968.22
2018-03-18T04:15:10.310Z,968.47
2018-03-18T04:16:05.379Z,968.36
2018-03-18T04:17:05.488Z,968.28
2018-03-18T04:18:05.413Z,968.44
2018-03-18T04:19:05.844Z,968.20
2018-03-18T04:20:05.118Z,968.34
2018-03-18T04:21:05.448Z,968.47
2018-03-18T04:22:05.270Z,968.48
2018-03-18T04:23:05.982Z,968.53
2018-03-18T04:24:05.037Z,968.31
2018-03-18T04:25:05.721Z,968.39
2018-03-18T04:26:05.820Z,968.45
2018-03-18T04:27:10.844Z,968.20
2018-03-18T04:28:05.921Z,968.17
2018-03-18T04:29:05.558Z,968.39
2018-03-18T04:30:05.839Z,968.39
2018-03-18T04:31:05.867Z,968.31
2018-03-18T04:32:05.636Z,968.31
2018-03-18T04:33:05.183Z,968.37
2018-03-18T04:34:05.480Z,968.31
2018-03-18T04:35:05.315Z,968.34
2018-03-18T04:36:05.140Z,968.34
2018-03-18T04:37:05.343Z,968.40
2018-03-18T04:38:05.546Z,968.42
2018-03-18T04:39:05.712Z,968.37
2018-03-18T04:40:05.643Z,968.40
2018-03-18T04:41:05.052Z,968.45
2018-03-18T04:42:05.945Z,968.53
2018-03-18T04:43:05.280Z,968.40
2018-03-18T04:44:04.978Z,968.37
2018-03-18T04:45:05.115Z,968.43
2018-03-18T04:46:05.163Z,968.51
2018-03-18T04:47:06.016Z,968.51
2018-03-18T04:48:05.484Z,968.40
2018-03-18T04:49:05.478Z,968.43
2018-03-18T04:50:05.586Z,968.59
2018-03-18T04:51:04.991Z,968.48
2018-03-18T04:52:05.640Z,968.35
2018-03-18T04:53:05.989Z,968.49
2018-03-18T04:54:05.493Z,968.68
2018-03-18T04:55:06.700Z,968.46
2018-03-18T04:56:05.374Z,968.86
2018-03-18T04:57:10.313Z,968.46
2018-03-18T04:58:05.473Z,968.62
2018-03-18T04:59:05.254Z,968.68
2018-03-18T05:00:05.304Z,968.49
2018-03-18T05:01:05.159Z,968.62
2018-03-18T05:02:05.091Z,968.72
2018-03-18T05:03:05.731Z,968.65
2018-03-18T05:04:05.158Z,968.54
2018-03-18T05:05:05.485Z,968.49
2018-03-18T05:06:11.488Z,968.66
2018-03-18T05:07:05.785Z,968.66
2018-03-18T05:08:06.749Z,968.73
2018-03-18T05:09:05.967Z,968.66
2018-03-18T05:10:05.381Z,968.60
2018-03-18T05:11:05.409Z,968.55
2018-03-18T05:12:05.770Z,968.57
2018-03-18T05:13:04.979Z,968.76
2018-03-18T05:14:05.662Z,968.58
2018-03-18T05:15:05.600Z,968.52
2018-03-18T05:16:06.252Z,968.55
2018-03-18T05:17:05.306Z,968.81
2018-03-18T05:18:05.586Z,968.50
2018-03-18T05:19:05.177Z,968.79
2018-03-18T05:20:05.918Z,968.58
2018-03-18T05:21:05.507Z,968.55
2018-03-18T05:22:05.478Z,968.58
2018-03-18T05:23:05.591Z,968.69
2018-03-18T05:24:05.927Z,968.42
2018-03-18T05:25:05.157Z,968.58
2018-03-18T05:26:05.647Z,968.55
2018-03-18T05:27:05.858Z,968.63
2018-03-18T05:28:05.951Z,968.53
2018-03-18T05:29:05.965Z,968.63
2018-03-18T05:30:05.663Z,968.52
2018-03-18T05:31:05.371Z,968.58
2018-03-18T05:32:05.729Z,968.71
2018-03-18T05:33:05.777Z,968.74
2018-03-18T05:34:06.108Z,968.64
2018-03-18T05:35:10.965Z,969.04
2018-03-18T05:36:05.125Z,968.95
2018-03-18T05:37:05.867Z,968.69
2018-03-18T05:38:05.498Z,968.61
2018-03-18T05:39:05.532Z,968.76
2018-03-18T05:40:05.757Z,968.85
2018-03-18T05:41:05.823Z,968.90
2018-03-18T05:42:05.131Z,968.80
2018-03-18T05:43:05.233Z,968.77
2018-03-18T05:44:05.549Z,968.74
2018-03-18T05:45:05.967Z,968.61
2018-03-18T05:46:05.595Z,968.71
2018-03-18T05:47:05.950Z,968.88
2018-03-18T05:48:05.165Z,968.77
2018-03-18T05:49:05.700Z,968.74
2018-03-18T05:50:05.186Z,968.82
2018-03-18T05:51:05.677Z,968.77
2018-03-18T05:52:05.892Z,968.93
2018-03-18T05:53:05.866Z,968.82
2018-03-18T05:54:05.428Z,968.88
2018-03-18T05:55:05.412Z,968.93
2018-03-18T05:56:06.093Z,968.91
2018-03-18T05:57:05.309Z,968.85
2018-03-18T05:58:05.470Z,968.96
2018-03-18T05:59:05.661Z,968.96
2018-03-18T06:00:05.516Z,969.18
2018-03-18T06:01:05.405Z,968.88
2018-03-18T06:02:05.249Z,969.04
2018-03-18T06:03:05.551Z,969.07
2018-03-18T06:04:05.338Z,968.91
2018-03-18T06:05:05.786Z,968.96
2018-03-18T06:06:05.867Z,968.88
2018-03-18T06:07:05.848Z,968.93
2018-03-18T06:08:05.479Z,969.18
2018-03-18T06:09:05.152Z,969.13
2018-03-18T06:10:05.748Z,969.10
2018-03-18T06:11:05.857Z,969.21
2018-03-18T06:12:05.803Z,969.18
2018-03-18T06:13:05.864Z,969.10
2018-03-18T06:14:05.073Z,968.91
2018-03-18T06:15:05.138Z,969.02
2018-03-18T06:16:05.806Z,969.10
2018-03-18T06:17:05.785Z,969.10
2018-03-18T06:18:10.277Z,969.35
2018-03-18T06:19:05.465Z,969.24
2018-03-18T06:20:05.725Z,969.15
2018-03-18T06:21:05.487Z,969.18
2018-03-18T06:22:05.620Z,969.10
2018-03-18T06:23:05.442Z,969.46
2018-03-18T06:24:05.837Z,969.13
2018-03-18T06:25:05.926Z,969.29
2018-03-18T06:26:05.678Z,969.32
2018-03-18T06:27:05.852Z,969.43
2018-03-18T06:28:06.033Z,969.29
2018-03-18T06:29:05.645Z,969.26
2018-03-18T06:30:05.392Z,969.15
2018-03-18T06:31:05.424Z,969.32
2018-03-18T06:32:05.545Z,969.24
2018-03-18T06:33:05.234Z,969.23
2018-03-18T06:34:05.950Z,969.37
2018-03-18T06:35:05.821Z,969.43
2018-03-18T06:36:05.158Z,969.35
2018-03-18T06:37:05.485Z,969.21
2018-03-18T06:38:05.113Z,969.32
2018-03-18T06:39:05.248Z,969.29
2018-03-18T06:40:05.919Z,969.45
2018-03-18T06:41:05.520Z,969.48
2018-03-18T06:42:05.175Z,969.37
2018-03-18T06:43:05.616Z,969.45
2018-03-18T06:44:05.613Z,969.43
2018-03-18T06:45:05.387Z,969.62
2018-03-18T06:46:05.638Z,969.34
2018-03-18T06:47:05.324Z,969.43
2018-03-18T06:48:05.576Z,969.51
2018-03-18T06:49:05.238Z,969.51
2018-03-18T06:50:05.681Z,969.50
2018-03-18T06:51:05.374Z,969.45
2018-03-18T06:52:05.814Z,969.37
2018-03-18T06:53:05.763Z,969.34
2018-03-18T06:54:05.433Z,969.47
2018-03-18T06:55:05.884Z,969.53
2018-03-18T06:56:05.380Z,969.50
2018-03-18T06:57:09.990Z,969.53
2018-03-18T06:58:05.780Z,969.59
2018-03-18T06:59:05.808Z,969.51
2018-03-18T07:00:05.268Z,969.64
2018-03-18T07:01:06.045Z,969.62
2018-03-18T07:02:10.048Z,969.75
2018-03-18T07:03:10.201Z,969.64
2018-03-18T07:04:05.475Z,969.56
2018-03-18T07:05:05.138Z,969.73
2018-03-18T07:06:05.169Z,969.67
2018-03-18T07:07:04.946Z,969.70
2018-03-18T07:08:06.343Z,969.78
2018-03-18T07:09:05.817Z,969.92
2018-03-18T07:10:05.385Z,969.75
2018-03-18T07:11:05.516Z,969.67
2018-03-18T07:12:05.583Z,969.67
2018-03-18T07:13:05.661Z,969.78
2018-03-18T07:14:05.449Z,969.64
2018-03-18T07:15:05.706Z,969.75
2018-03-18T07:16:05.541Z,969.75
2018-03-18T07:17:05.460Z,969.70
2018-03-18T07:18:05.617Z,970.10
2018-03-18T07:19:05.673Z,969.86
2018-03-18T07:20:05.828Z,969.83
2018-03-18T07:21:05.184Z,969.89
2018-03-18T07:22:05.398Z,969.80
2018-03-18T07:23:05.325Z,969.75
2018-03-18T07:24:05.005Z,969.78
2018-03-18T07:25:05.822Z,969.99
2018-03-18T07:26:06.921Z,969.96
2018-03-18T07:27:05.225Z,969.78
2018-03-18T07:28:05.105Z,969.92
2018-03-18T07:29:05.425Z,969.99
2018-03-18T07:30:05.418Z,970.07
2018-03-18T07:31:05.831Z,969.99
2018-03-18T07:32:05.798Z,970.07
2018-03-18T07:33:06.014Z,970.13
2018-03-18T07:34:05.259Z,969.89
2018-03-18T07:35:06.031Z,969.96
2018-03-18T07:36:05.705Z,970.10
2018-03-18T07:37:05.768Z,969.86
2018-03-18T07:38:05.755Z,969.83
2018-03-18T07:39:10.650Z,969.99
2018-03-18T07:40:10.765Z,970.04
2018-03-18T07:41:05.999Z,970.01
2018-03-18T07:42:05.086Z,970.09
2018-03-18T07:43:05.560Z,970.01
2018-03-18T07:44:05.084Z,970.09
2018-03-18T07:45:04.978Z,970.03
2018-03-18T07:46:05.399Z,970.03
2018-03-18T07:47:06.156Z,970.46
2018-03-18T07:48:05.406Z,970.41
2018-03-18T07:49:05.802Z,970.17
2018-03-18T07:50:05.644Z,970.11
2018-03-18T07:51:05.593Z,970.03
2018-03-18T07:52:05.516Z,970.11
2018-03-18T07:53:05.144Z,970.00
2018-03-18T07:54:05.267Z,970.00
2018-03-18T07:55:06.149Z,970.03
2018-03-18T07:56:05.423Z,969.84
2018-03-18T07:57:06.029Z,970.33
2018-03-18T07:58:05.861Z,970.48
2018-03-18T07:59:05.199Z,970.19
2018-03-18T08:00:05.788Z,970.03
2018-03-18T08:01:05.150Z,970.11
2018-03-18T08:02:06.217Z,970.00
2018-03-18T08:03:05.211Z,970.16
2018-03-18T08:04:05.535Z,970.14
2018-03-18T08:05:05.562Z,970.03
2018-03-18T08:06:05.245Z,970.33
2018-03-18T08:07:05.926Z,970.14
2018-03-18T08:08:05.654Z,970.17
2018-03-18T08:09:06.664Z,970.19
2018-03-18T08:10:05.380Z,970.25
2018-03-18T08:11:05.718Z,970.14
2018-03-18T08:12:05.141Z,970.16
2018-03-18T08:13:05.856Z,970.33
2018-03-18T08:14:05.806Z,970.19
2018-03-18T08:15:05.316Z,970.35
2018-03-18T08:16:05.595Z,970.24
2018-03-18T08:17:05.165Z,970.47
2018-03-18T08:18:05.454Z,970.37
2018-03-18T08:19:05.021Z,970.29
2018-03-18T08:20:05.595Z,970.42
2018-03-18T08:21:05.749Z,970.40
2018-03-18T08:22:05.180Z,970.34
2018-03-18T08:23:05.319Z,970.32
2018-03-18T08:24:05.566Z,970.42
2018-03-18T08:25:05.495Z,970.20
2018-03-18T08:26:04.933Z,970.55
2018-03-18T08:27:05.892Z,970.23
2018-03-18T08:28:04.989Z,970.17
2018-03-18T08:29:05.488Z,970.66
2018-03-18T08:30:05.130Z,970.34
2018-03-18T08:31:05.124Z,970.34
2018-03-18T08:32:05.707Z,970.42
2018-03-18T08:33:05.468Z,970.44
2018-03-18T08:34:05.180Z,970.46
2018-03-18T08:35:04.940Z,970.25
2018-03-18T08:36:05.684Z,970.31
2018-03-18T08:37:05.762Z,970.31
2018-03-18T08:38:05.590Z,970.57
2018-03-18T08:39:05.487Z,970.09
2018-03-18T08:40:05.928Z,970.46
2018-03-18T08:41:05.942Z,970.25
2018-03-18T08:42:05.900Z,970.39
2018-03-18T08:43:05.394Z,970.25
2018-03-18T08:44:05.895Z,970.28
2018-03-18T08:45:05.722Z,970.33
2018-03-18T08:46:05.794Z,970.30
2018-03-18T08:47:05.901Z,970.43
2018-03-18T08:48:04.979Z,970.33
2018-03-18T08:49:05.649Z,970.27
2018-03-18T08:50:05.332Z,970.42
2018-03-18T08:51:05.061Z,970.50
2018-03-18T08:52:07.070Z,970.40
2018-03-18T08:53:05.240Z,970.45
2018-03-18T08:54:05.894Z,970.42
2018-03-18T08:55:05.576Z,970.32
2018-03-18T08:56:05.227Z,970.21
2018-03-18T08:57:05.884Z,970.23
2018-03-18T08:58:06.099Z,970.47
2018-03-18T08:59:05.901Z,970.42
2018-03-18T09:00:05.821Z,970.44
2018-03-18T09:01:04.991Z,970.26
2018-03-18T09:02:05.999Z,970.50
2018-03-18T09:03:05.808Z,970.40
2018-03-18T09:04:05.352Z,970.44
2018-03-18T09:05:05.090Z,970.34
2018-03-18T09:06:05.071Z,970.09
2018-03-18T09:07:05.864Z,970.28
2018-03-18T09:08:05.323Z,970.42
2018-03-18T09:09:06.096Z,970.31
2018-03-18T09:10:05.257Z,970.28
2018-03-18T09:11:05.708Z,970.52
2018-03-18T09:12:05.643Z,970.39
2018-03-18T09:13:05.694Z,970.44
2018-03-18T09:14:09.961Z,970.22
2018-03-18T09:15:05.922Z,970.52
2018-03-18T09:16:06.131Z,970.39
2018-03-18T09:17:05.239Z,970.39
2018-03-18T09:18:05.945Z,970.22
2018-03-18T09:19:05.932Z,970.53
2018-03-18T09:20:05.271Z,970.62
2018-03-18T09:21:05.269Z,970.50
2018-03-18T09:22:05.074Z,970.32
2018-03-18T09:23:05.914Z,970.53
2018-03-18T09:24:05.480Z,970.55
2018-03-18T09:25:05.535Z,970.42
2018-03-18T09:26:05.880Z,970.44
2018-03-18T09:27:05.942Z,970.40
2018-03-18T09:28:05.458Z,970.50
2018-03-18T09:29:05.444Z,970.55
2018-03-18T09:30:05.305Z,970.44
2018-03-18T09:31:05.122Z,970.42
2018-03-18T09:32:05.115Z,970.44
2018-03-18T09:33:05.165Z,970.34
2018-03-18T09:34:05.803Z,970.42
2018-03-18T09:35:05.405Z,970.49
2018-03-18T09:36:05.855Z,970.51
2018-03-18T09:37:05.491Z,970.46
2018-03-18T09:38:05.165Z,970.57
2018-03-18T09:39:05.737Z,970.51
2018-03-18T09:40:05.961Z,970.36
2018-03-18T09:41:05.286Z,970.39
2018-03-18T09:42:05.985Z,970.54
2018-03-18T09:43:05.698Z,970.30
2018-03-18T09:44:05.306Z,970.54
2018-03-18T09:45:05.073Z,970.73
2018-03-18T09:46:05.765Z,970.73
2018-03-18T09:47:10.848Z,970.33
2018-03-18T09:48:06.040Z,970.35
2018-03-18T09:49:05.297Z,970.41
2018-03-18T09:50:05.388Z,970.73
2018-03-18T09:51:10.475Z,970.48
2018-03-18T09:52:06.010Z,970.42
2018-03-18T09:53:06.045Z,970.34
2018-03-18T09:54:05.386Z,970.42
2018-03-18T09:55:05.301Z,970.39
2018-03-18T09:56:05.213Z,970.43
2018-03-18T09:57:05.010Z,970.35
2018-03-18T09:58:05.934Z,970.24
2018-03-18T09:59:05.817Z,970.50
2018-03-18T10:00:05.937Z,970.50
2018-03-18T10:01:05.678Z,970.34
2018-03-18T10:02:05.348Z,970.47
2018-03-18T10:03:05.239Z,970.49
2018-03-18T10:04:05.244Z,970.39
2018-03-18T10:05:05.826Z,970.44
2018-03-18T10:06:05.839Z,970.31
2018-03-18T10:07:05.389Z,970.55
2018-03-18T10:08:06.002Z,970.50
2018-03-18T10:09:06.023Z,970.42
2018-03-18T10:10:05.173Z,970.58
2018-03-18T10:11:05.185Z,970.61
2018-03-18T10:12:05.037Z,970.52
2018-03-18T10:13:04.940Z,970.60
2018-03-18T10:14:05.837Z,970.44
2018-03-18T10:15:05.177Z,970.55
2018-03-18T10:16:05.770Z,970.52
2018-03-18T10:17:05.642Z,970.46
2018-03-18T10:18:05.783Z,970.54
2018-03-18T10:19:05.225Z,970.49
2018-03-18T10:20:05.818Z,970.65
2018-03-18T10:21:05.571Z,970.41
2018-03-18T10:22:05.479Z,970.48
2018-03-18T10:23:05.487Z,970.43
2018-03-18T10:24:05.350Z,970.22
2018-03-18T10:25:05.256Z,970.43
2018-03-18T10:26:05.031Z,970.41
2018-03-18T10:27:05.599Z,970.42
2018-03-18T10:28:05.441Z,970.71
2018-03-18T10:29:05.854Z,970.52
2018-03-18T10:30:05.760Z,970.49
2018-03-18T10:31:05.564Z,970.54
2018-03-18T10:32:05.302Z,970.68
2018-03-18T10:33:05.269Z,970.62
2018-03-18T10:34:05.185Z,970.64
2018-03-18T10:35:05.600Z,970.72
2018-03-18T10:36:05.411Z,970.72
2018-03-18T10:37:05.101Z,970.55
2018-03-18T10:38:05.785Z,970.63
2018-03-18T10:39:05.425Z,970.55
2018-03-18T10:40:06.139Z,970.57
2018-03-18T10:41:05.789Z,970.77
2018-03-18T10:42:05.764Z,970.63
2018-03-18T10:43:05.315Z,970.57
2018-03-18T10:44:05.938Z,970.71
2018-03-18T10:45:05.878Z,970.68
2018-03-18T10:46:06.072Z,970.51
2018-03-18T10:47:05.226Z,970.73
2018-03-18T10:48:05.400Z,970.62
2018-03-18T10:49:05.505Z,970.54
2018-03-18T10:50:05.529Z,970.56
2018-03-18T10:51:05.502Z,970.54
2018-03-18T10:52:05.317Z,970.76
2018-03-18T10:53:05.427Z,970.73
2018-03-18T10:54:05.999Z,970.76
2018-03-18T10:55:05.372Z,970.76
2018-03-18T10:56:05.756Z,970.71
2018-03-18T10:57:05.659Z,970.73
2018-03-18T10:58:05.513Z,970.68
2018-03-18T10:59:06.123Z,970.79
2018-03-18T11:00:05.788Z,970.90
2018-03-18T11:01:05.707Z,970.65
2018-03-18T11:02:05.449Z,970.96
2018-03-18T11:03:05.439Z,970.82
2018-03-18T11:04:05.697Z,970.71
2018-03-18T11:05:05.563Z,970.71
2018-03-18T11:06:05.095Z,970.79
2018-03-18T11:07:05.972Z,970.93
2018-03-18T11:08:05.773Z,970.74
2018-03-18T11:09:05.948Z,970.77
2018-03-18T11:10:08.528Z,970.71
2018-03-18T11:11:06.024Z,970.88
2018-03-18T11:12:05.925Z,970.74
2018-03-18T11:13:05.200Z,970.85
2018-03-18T11:14:05.377Z,970.77
2018-03-18T11:15:05.741Z,970.77
2018-03-18T11:16:05.853Z,970.74
2018-03-18T11:17:05.430Z,970.99
2018-03-18T11:18:05.580Z,970.77
2018-03-18T11:19:05.898Z,970.74
2018-03-18T11:20:05.108Z,970.96
2018-03-18T11:21:05.658Z,970.99
2018-03-18T11:22:05.758Z,970.60
2018-03-18T11:23:05.071Z,970.77
2018-03-18T11:24:05.067Z,970.77
2018-03-18T11:25:05.265Z,970.69
2018-03-18T11:26:05.662Z,970.79
2018-03-18T11:27:05.314Z,970.88
2018-03-18T11:28:04.982Z,970.88
2018-03-18T11:29:05.722Z,970.76
2018-03-18T11:30:05.177Z,970.76
2018-03-18T11:31:05.151Z,970.93
2018-03-18T11:32:05.701Z,970.85
2018-03-18T11:33:05.534Z,970.73
2018-03-18T11:34:05.251Z,970.82
2018-03-18T11:35:05.099Z,970.73
2018-03-18T11:36:05.672Z,970.81
2018-03-18T11:37:05.796Z,970.76
2018-03-18T11:38:05.673Z,970.59
2018-03-18T11:39:05.103Z,970.70
2018-03-18T11:40:06.075Z,970.76
2018-03-18T11:41:05.573Z,970.73
2018-03-18T11:42:06.018Z,970.81
2018-03-18T11:43:05.952Z,971.00
2018-03-18T11:44:05.636Z,970.80
2018-03-18T11:45:05.346Z,970.64
2018-03-18T11:46:05.266Z,970.89
2018-03-18T11:47:05.786Z,970.83
2018-03-18T11:48:05.833Z,970.64
2018-03-18T11:49:05.708Z,970.89
2018-03-18T11:50:05.863Z,970.77
2018-03-18T11:51:05.442Z,970.89
2018-03-18T11:52:05.539Z,970.86
2018-03-18T11:53:05.822Z,970.77
2018-03-18T11:54:05.480Z,970.72
2018-03-18T11:55:05.941Z,970.72
2018-03-18T11:56:05.779Z,970.80
2018-03-18T11:57:06.032Z,970.71
2018-03-18T11:58:06.128Z,970.71
2018-03-18T11:59:05.895Z,970.71
2018-03-18T12:00:05.971Z,970.74
2018-03-18T12:01:05.840Z,970.76
2018-03-18T12:02:05.265Z,970.68
2018-03-18T12:03:05.341Z,970.54
2018-03-18T12:04:05.779Z,970.76
2018-03-18T12:05:05.407Z,970.68
2018-03-18T12:06:05.496Z,970.76
2018-03-18T12:07:05.096Z,970.68
2018-03-18T12:08:05.545Z,970.77
2018-03-18T12:09:05.426Z,970.79
2018-03-18T12:10:05.999Z,970.79
2018-03-18T12:11:05.579Z,970.79
2018-03-18T12:12:05.367Z,970.76
2018-03-18T12:13:05.452Z,970.63
2018-03-18T12:14:05.712Z,970.79
2018-03-18T12:15:10.647Z,970.79
2018-03-18T12:16:05.511Z,970.60
2018-03-18T12:17:05.181Z,970.65
2018-03-18T12:18:05.994Z,970.60
2018-03-18T12:19:05.518Z,970.74
2018-03-18T12:20:05.293Z,970.65
2018-03-18T12:21:05.710Z,970.85
2018-03-18T12:22:05.160Z,970.55
2018-03-18T12:23:05.219Z,970.66
2018-03-18T12:24:05.322Z,970.66
2018-03-18T12:25:05.284Z,970.66
2018-03-18T12:26:05.570Z,970.52
2018-03-18T12:27:05.494Z,971.02
2018-03-18T12:28:05.697Z,970.74